sensor_id;sensor_type;location;lat;lon;timestamp;temperature;humidity
10417;DHT22;62605;49.432;8.680;2024-01-16T00:02:24;-0.50;99.90
10417;DHT22;62605;49.432;8.680;2024-01-16T00:04:53;-0.50;99.90
10417;DHT22;62605;49.432;8.680;2024-01-16T00:07:21;-0.60;99.90
10417;DHT22;62605;49.432;8.680;2024-01-16T00:09:49;-0.60;99.90
10417;DHT22;62605;49.432;8.680;2024-01-16T00:12:20;-0.60;99.90
10417;DHT22;62605;49.432;8.680;2024-01-16T00:14:47;-0.60;99.90
10417;DHT22;62605;49.432;8.680;2024-01-16T00:17:16;-0.60;99.90
10417;DHT22;62605;49.432;8.680;2024-01-16T00:19:44;-0.60;99.90
10417;DHT22;62605;49.432;8.680;2024-01-16T00:22:14;-0.50;99.90
10417;DHT22;62605;49.432;8.680;2024-01-16T00:24:42;-0.60;99.90
10417;DHT22;62605;49.432;8.680;2024-01-16T00:27:09;-0.60;99.90
10417;DHT22;62605;49.432;8.680;2024-01-16T00:29:38;-0.70;99.90
10417;DHT22;62605;49.432;8.680;2024-01-16T00:32:07;-0.80;99.90
10417;DHT22;62605;49.432;8.680;2024-01-16T00:34:36;-0.80;99.90
10417;DHT22;62605;49.432;8.680;2024-01-16T00:37:06;-0.80;99.90
10417;DHT22;62605;49.432;8.680;2024-01-16T00:39:36;-0.90;99.90
10417;DHT22;62605;49.432;8.680;2024-01-16T00:42:04;-0.80;99.90
10417;DHT22;62605;49.432;8.680;2024-01-16T00:44:32;-0.70;99.90
10417;DHT22;62605;49.432;8.680;2024-01-16T00:47:05;-0.60;99.90
10417;DHT22;62605;49.432;8.680;2024-01-16T00:49:37;-0.50;99.90
10417;DHT22;62605;49.432;8.680;2024-01-16T00:52:11;-0.50;99.90
10417;DHT22;62605;49.432;8.680;2024-01-16T00:54:40;-0.40;99.90
10417;DHT22;62605;49.432;8.680;2024-01-16T00:57:07;-0.40;99.90
10417;DHT22;62605;49.432;8.680;2024-01-16T00:59:35;-0.30;99.90
10417;DHT22;62605;49.432;8.680;2024-01-16T01:02:02;-0.30;99.90
10417;DHT22;62605;49.432;8.680;2024-01-16T01:04:29;-0.30;99.90
10417;DHT22;62605;49.432;8.680;2024-01-16T01:06:57;-0.40;99.90
10417;DHT22;62605;49.432;8.680;2024-01-16T01:09:24;-0.40;99.90
10417;DHT22;62605;49.432;8.680;2024-01-16T01:11:52;-0.50;99.90
10417;DHT22;62605;49.432;8.680;2024-01-16T01:14:20;-0.50;99.90
10417;DHT22;62605;49.432;8.680;2024-01-16T01:16:48;-0.50;99.90
10417;DHT22;62605;49.432;8.680;2024-01-16T01:19:16;-0.50;99.90
10417;DHT22;62605;49.432;8.680;2024-01-16T01:21:43;-0.50;99.90
10417;DHT22;62605;49.432;8.680;2024-01-16T01:24:10;-0.40;99.90
10417;DHT22;62605;49.432;8.680;2024-01-16T01:26:37;-0.40;99.90
10417;DHT22;62605;49.432;8.680;2024-01-16T01:29:06;-0.40;99.90
10417;DHT22;62605;49.432;8.680;2024-01-16T01:31:33;-0.40;99.90
10417;DHT22;62605;49.432;8.680;2024-01-16T01:34:00;-0.40;99.90
10417;DHT22;62605;49.432;8.680;2024-01-16T01:36:28;-0.30;99.90
10417;DHT22;62605;49.432;8.680;2024-01-16T01:38:55;-0.30;99.90
10417;DHT22;62605;49.432;8.680;2024-01-16T01:41:22;-0.30;99.90
10417;DHT22;62605;49.432;8.680;2024-01-16T01:43:54;-0.30;99.90
10417;DHT22;62605;49.432;8.680;2024-01-16T01:46:28;-0.40;99.90
10417;DHT22;62605;49.432;8.680;2024-01-16T01:48:58;-0.40;99.90
10417;DHT22;62605;49.432;8.680;2024-01-16T01:51:26;-0.40;99.90
10417;DHT22;62605;49.432;8.680;2024-01-16T01:53:54;-0.40;99.90
10417;DHT22;62605;49.432;8.680;2024-01-16T01:56:24;-0.50;99.90
10417;DHT22;62605;49.432;8.680;2024-01-16T01:58:54;-0.50;99.90
10417;DHT22;62605;49.432;8.680;2024-01-16T02:01:28;-0.50;99.90
10417;DHT22;62605;49.432;8.680;2024-01-16T02:04:03;-0.50;99.90
10417;DHT22;62605;49.432;8.680;2024-01-16T02:06:31;-0.50;99.90
10417;DHT22;62605;49.432;8.680;2024-01-16T02:09:01;-0.60;99.90
10417;DHT22;62605;49.432;8.680;2024-01-16T02:11:34;-0.40;99.90
10417;DHT22;62605;49.432;8.680;2024-01-16T02:14:01;-0.40;99.90
10417;DHT22;62605;49.432;8.680;2024-01-16T02:16:36;-0.50;99.90
10417;DHT22;62605;49.432;8.680;2024-01-16T02:19:08;-0.50;99.90
10417;DHT22;62605;49.432;8.680;2024-01-16T02:21:38;-0.40;99.90
10417;DHT22;62605;49.432;8.680;2024-01-16T02:24:08;-0.50;99.90
10417;DHT22;62605;49.432;8.680;2024-01-16T02:26:37;-0.50;99.90
10417;DHT22;62605;49.432;8.680;2024-01-16T02:29:05;-0.50;99.90
10417;DHT22;62605;49.432;8.680;2024-01-16T02:31:32;-0.60;99.90
10417;DHT22;62605;49.432;8.680;2024-01-16T02:34:00;-0.50;99.90
10417;DHT22;62605;49.432;8.680;2024-01-16T02:36:31;-0.40;99.90
10417;DHT22;62605;49.432;8.680;2024-01-16T02:39:02;-0.50;99.90
10417;DHT22;62605;49.432;8.680;2024-01-16T02:41:35;-0.40;99.90
10417;DHT22;62605;49.432;8.680;2024-01-16T02:44:02;-0.40;99.90
10417;DHT22;62605;49.432;8.680;2024-01-16T02:46:30;-0.50;99.90
10417;DHT22;62605;49.432;8.680;2024-01-16T02:49:01;-0.50;99.90
10417;DHT22;62605;49.432;8.680;2024-01-16T02:51:28;-0.60;99.90
10417;DHT22;62605;49.432;8.680;2024-01-16T02:53:55;-0.60;99.90
10417;DHT22;62605;49.432;8.680;2024-01-16T02:56:22;-0.70;99.90
10417;DHT22;62605;49.432;8.680;2024-01-16T02:58:51;-0.70;99.90
10417;DHT22;62605;49.432;8.680;2024-01-16T03:01:18;-0.70;99.90
10417;DHT22;62605;49.432;8.680;2024-01-16T03:03:45;-0.80;99.90
10417;DHT22;62605;49.432;8.680;2024-01-16T03:06:21;-0.90;99.90
10417;DHT22;62605;49.432;8.680;2024-01-16T03:08:49;-0.80;99.90
10417;DHT22;62605;49.432;8.680;2024-01-16T03:11:16;-0.90;99.90
10417;DHT22;62605;49.432;8.680;2024-01-16T03:13:45;-0.80;99.90
10417;DHT22;62605;49.432;8.680;2024-01-16T03:16:13;-0.90;99.90
10417;DHT22;62605;49.432;8.680;2024-01-16T03:18:41;-0.80;99.90
10417;DHT22;62605;49.432;8.680;2024-01-16T03:21:10;-0.80;99.90
10417;DHT22;62605;49.432;8.680;2024-01-16T03:23:37;-0.90;99.90
10417;DHT22;62605;49.432;8.680;2024-01-16T03:26:04;-0.80;99.90
10417;DHT22;62605;49.432;8.680;2024-01-16T03:28:32;-0.80;99.90
10417;DHT22;62605;49.432;8.680;2024-01-16T03:30:59;-0.90;99.90
10417;DHT22;62605;49.432;8.680;2024-01-16T03:33:29;-0.80;99.90
10417;DHT22;62605;49.432;8.680;2024-01-16T03:35:57;-0.80;99.90
10417;DHT22;62605;49.432;8.680;2024-01-16T03:38:24;-0.80;99.90
10417;DHT22;62605;49.432;8.680;2024-01-16T03:40:51;-0.70;99.90
10417;DHT22;62605;49.432;8.680;2024-01-16T03:43:18;-0.70;99.90
10417;DHT22;62605;49.432;8.680;2024-01-16T03:45:46;-0.60;99.90
10417;DHT22;62605;49.432;8.680;2024-01-16T03:48:12;-0.60;99.90
10417;DHT22;62605;49.432;8.680;2024-01-16T03:50:41;-0.70;99.90
10417;DHT22;62605;49.432;8.680;2024-01-16T03:53:09;-0.70;99.90
10417;DHT22;62605;49.432;8.680;2024-01-16T03:55:37;-0.80;99.90
10417;DHT22;62605;49.432;8.680;2024-01-16T03:58:04;-0.80;99.90
10417;DHT22;62605;49.432;8.680;2024-01-16T04:00:32;-0.80;99.90
10417;DHT22;62605;49.432;8.680;2024-01-16T04:02:59;-0.90;99.90
10417;DHT22;62605;49.432;8.680;2024-01-16T04:05:25;-0.80;99.90
10417;DHT22;62605;49.432;8.680;2024-01-16T04:07:54;-0.80;99.90
10417;DHT22;62605;49.432;8.680;2024-01-16T04:10:21;-0.80;99.90
10417;DHT22;62605;49.432;8.680;2024-01-16T04:12:48;-0.80;99.90
10417;DHT22;62605;49.432;8.680;2024-01-16T04:15:16;-0.80;99.90
10417;DHT22;62605;49.432;8.680;2024-01-16T04:17:42;-0.90;99.90
10417;DHT22;62605;49.432;8.680;2024-01-16T04:20:10;-0.80;99.90
10417;DHT22;62605;49.432;8.680;2024-01-16T04:22:37;-0.80;99.90
10417;DHT22;62605;49.432;8.680;2024-01-16T04:25:06;-0.90;99.90
10417;DHT22;62605;49.432;8.680;2024-01-16T04:27:34;-1.00;99.90
10417;DHT22;62605;49.432;8.680;2024-01-16T04:30:01;-0.90;99.90
10417;DHT22;62605;49.432;8.680;2024-01-16T04:32:28;-0.90;99.90
10417;DHT22;62605;49.432;8.680;2024-01-16T04:34:55;-0.90;99.90
10417;DHT22;62605;49.432;8.680;2024-01-16T04:37:23;-0.90;99.90
10417;DHT22;62605;49.432;8.680;2024-01-16T04:39:50;-0.90;99.90
10417;DHT22;62605;49.432;8.680;2024-01-16T04:42:19;-0.90;99.90
10417;DHT22;62605;49.432;8.680;2024-01-16T04:44:46;-1.00;99.90
10417;DHT22;62605;49.432;8.680;2024-01-16T04:47:13;-0.90;99.90
10417;DHT22;62605;49.432;8.680;2024-01-16T04:49:41;-1.00;99.90
10417;DHT22;62605;49.432;8.680;2024-01-16T04:52:09;-1.00;99.90
10417;DHT22;62605;49.432;8.680;2024-01-16T04:54:36;-1.00;99.90
10417;DHT22;62605;49.432;8.680;2024-01-16T04:57:03;-1.00;99.90
10417;DHT22;62605;49.432;8.680;2024-01-16T04:59:32;-1.10;99.90
10417;DHT22;62605;49.432;8.680;2024-01-16T05:01:59;-1.00;99.90
10417;DHT22;62605;49.432;8.680;2024-01-16T05:04:27;-1.10;99.90
10417;DHT22;62605;49.432;8.680;2024-01-16T05:06:54;-1.10;99.90
10417;DHT22;62605;49.432;8.680;2024-01-16T05:09:21;-1.10;99.90
10417;DHT22;62605;49.432;8.680;2024-01-16T05:11:48;-1.10;99.90
10417;DHT22;62605;49.432;8.680;2024-01-16T05:14:16;-1.00;99.90
10417;DHT22;62605;49.432;8.680;2024-01-16T05:16:44;-1.10;99.90
10417;DHT22;62605;49.432;8.680;2024-01-16T05:19:12;-1.10;99.90
10417;DHT22;62605;49.432;8.680;2024-01-16T05:21:40;-1.00;99.90
10417;DHT22;62605;49.432;8.680;2024-01-16T05:24:08;-1.00;99.90
10417;DHT22;62605;49.432;8.680;2024-01-16T05:26:36;-1.00;99.90
10417;DHT22;62605;49.432;8.680;2024-01-16T05:29:03;-1.00;99.90
10417;DHT22;62605;49.432;8.680;2024-01-16T05:31:30;-1.00;99.90
10417;DHT22;62605;49.432;8.680;2024-01-16T05:34:00;-1.10;99.90
10417;DHT22;62605;49.432;8.680;2024-01-16T05:36:27;-1.00;99.90
10417;DHT22;62605;49.432;8.680;2024-01-16T05:38:54;-1.00;99.90
10417;DHT22;62605;49.432;8.680;2024-01-16T05:41:22;-1.00;99.90
10417;DHT22;62605;49.432;8.680;2024-01-16T05:43:49;-1.00;99.90
10417;DHT22;62605;49.432;8.680;2024-01-16T05:46:17;-1.10;99.90
10417;DHT22;62605;49.432;8.680;2024-01-16T05:48:45;-1.00;99.90
10417;DHT22;62605;49.432;8.680;2024-01-16T05:51:13;-1.00;99.90
10417;DHT22;62605;49.432;8.680;2024-01-16T05:53:41;-1.00;99.90
10417;DHT22;62605;49.432;8.680;2024-01-16T05:56:09;-1.10;99.90
10417;DHT22;62605;49.432;8.680;2024-01-16T05:58:36;-1.10;99.90
10417;DHT22;62605;49.432;8.680;2024-01-16T06:01:04;-1.10;99.90
10417;DHT22;62605;49.432;8.680;2024-01-16T06:03:31;-1.10;99.90
10417;DHT22;62605;49.432;8.680;2024-01-16T06:05:59;-1.10;99.90
10417;DHT22;62605;49.432;8.680;2024-01-16T06:08:27;-1.10;99.90
10417;DHT22;62605;49.432;8.680;2024-01-16T06:10:55;-1.10;99.90
10417;DHT22;62605;49.432;8.680;2024-01-16T06:13:22;-1.20;99.90
10417;DHT22;62605;49.432;8.680;2024-01-16T06:15:49;-1.20;99.90
10417;DHT22;62605;49.432;8.680;2024-01-16T06:18:17;-1.20;99.90
10417;DHT22;62605;49.432;8.680;2024-01-16T06:20:44;-1.20;99.90
10417;DHT22;62605;49.432;8.680;2024-01-16T06:23:11;-1.20;99.90
10417;DHT22;62605;49.432;8.680;2024-01-16T06:25:40;-1.30;99.90
10417;DHT22;62605;49.432;8.680;2024-01-16T06:28:07;-1.30;99.90
10417;DHT22;62605;49.432;8.680;2024-01-16T06:30:34;-1.30;99.90
10417;DHT22;62605;49.432;8.680;2024-01-16T06:33:02;-1.30;99.90
10417;DHT22;62605;49.432;8.680;2024-01-16T06:35:29;-1.30;99.90
10417;DHT22;62605;49.432;8.680;2024-01-16T06:37:56;-1.40;99.90
10417;DHT22;62605;49.432;8.680;2024-01-16T06:40:24;-1.50;99.90
10417;DHT22;62605;49.432;8.680;2024-01-16T06:42:52;-1.40;99.90
10417;DHT22;62605;49.432;8.680;2024-01-16T06:45:20;-1.30;99.90
10417;DHT22;62605;49.432;8.680;2024-01-16T06:47:47;-1.30;99.90
10417;DHT22;62605;49.432;8.680;2024-01-16T06:50:15;-1.10;99.90
10417;DHT22;62605;49.432;8.680;2024-01-16T06:52:42;-1.10;99.90
10417;DHT22;62605;49.432;8.680;2024-01-16T06:55:09;-1.00;99.90
10417;DHT22;62605;49.432;8.680;2024-01-16T06:57:37;-1.00;99.90
10417;DHT22;62605;49.432;8.680;2024-01-16T07:00:07;-1.10;99.90
10417;DHT22;62605;49.432;8.680;2024-01-16T07:02:34;-1.10;99.90
10417;DHT22;62605;49.432;8.680;2024-01-16T07:05:02;-1.20;99.90
10417;DHT22;62605;49.432;8.680;2024-01-16T07:07:29;-1.10;99.90
10417;DHT22;62605;49.432;8.680;2024-01-16T07:09:57;-1.10;99.90
10417;DHT22;62605;49.432;8.680;2024-01-16T07:12:24;-1.10;99.90
10417;DHT22;62605;49.432;8.680;2024-01-16T07:14:51;-1.20;99.90
10417;DHT22;62605;49.432;8.680;2024-01-16T07:17:20;-1.30;99.90
10417;DHT22;62605;49.432;8.680;2024-01-16T07:19:47;-1.20;99.90
10417;DHT22;62605;49.432;8.680;2024-01-16T07:22:14;-1.10;99.90
10417;DHT22;62605;49.432;8.680;2024-01-16T07:24:42;-1.10;99.90
10417;DHT22;62605;49.432;8.680;2024-01-16T07:27:09;-1.10;99.90
10417;DHT22;62605;49.432;8.680;2024-01-16T07:29:36;-1.10;99.90
10417;DHT22;62605;49.432;8.680;2024-01-16T07:32:05;-1.00;99.90
10417;DHT22;62605;49.432;8.680;2024-01-16T07:34:34;-1.00;99.90
10417;DHT22;62605;49.432;8.680;2024-01-16T07:37:01;-1.00;99.90
10417;DHT22;62605;49.432;8.680;2024-01-16T07:39:29;-0.90;99.90
10417;DHT22;62605;49.432;8.680;2024-01-16T07:41:56;-0.90;99.90
10417;DHT22;62605;49.432;8.680;2024-01-16T07:44:23;-0.90;99.90
10417;DHT22;62605;49.432;8.680;2024-01-16T07:46:50;-0.90;99.90
10417;DHT22;62605;49.432;8.680;2024-01-16T07:49:17;-0.90;99.90
10417;DHT22;62605;49.432;8.680;2024-01-16T07:51:46;-0.90;99.90
10417;DHT22;62605;49.432;8.680;2024-01-16T07:54:14;-0.80;99.90
10417;DHT22;62605;49.432;8.680;2024-01-16T07:56:42;-0.90;99.90
10417;DHT22;62605;49.432;8.680;2024-01-16T07:59:09;-0.80;99.90
10417;DHT22;62605;49.432;8.680;2024-01-16T08:01:36;-0.80;99.90
10417;DHT22;62605;49.432;8.680;2024-01-16T08:04:03;-0.80;99.90
10417;DHT22;62605;49.432;8.680;2024-01-16T08:06:31;-0.80;99.90
10417;DHT22;62605;49.432;8.680;2024-01-16T08:09:00;-0.80;99.90
10417;DHT22;62605;49.432;8.680;2024-01-16T08:11:27;-0.80;99.90
10417;DHT22;62605;49.432;8.680;2024-01-16T08:13:55;-0.80;99.90
10417;DHT22;62605;49.432;8.680;2024-01-16T08:16:27;-0.80;99.90
10417;DHT22;62605;49.432;8.680;2024-01-16T08:18:55;-0.60;99.90
10417;DHT22;62605;49.432;8.680;2024-01-16T08:21:23;-0.50;99.90
10417;DHT22;62605;49.432;8.680;2024-01-16T08:23:50;-0.40;99.90
10417;DHT22;62605;49.432;8.680;2024-01-16T08:26:19;-0.30;99.90
10417;DHT22;62605;49.432;8.680;2024-01-16T08:28:47;-0.30;99.90
10417;DHT22;62605;49.432;8.680;2024-01-16T08:31:16;-0.20;99.90
10417;DHT22;62605;49.432;8.680;2024-01-16T08:33:44;-0.30;99.90
10417;DHT22;62605;49.432;8.680;2024-01-16T08:36:12;-0.20;99.90
10417;DHT22;62605;49.432;8.680;2024-01-16T08:38:39;-0.20;99.90
10417;DHT22;62605;49.432;8.680;2024-01-16T08:41:06;-0.30;99.90
10417;DHT22;62605;49.432;8.680;2024-01-16T08:43:36;-0.30;99.90
10417;DHT22;62605;49.432;8.680;2024-01-16T08:46:03;-0.20;99.90
10417;DHT22;62605;49.432;8.680;2024-01-16T08:48:31;-0.20;99.90
10417;DHT22;62605;49.432;8.680;2024-01-16T08:50:58;-0.30;99.90
10417;DHT22;62605;49.432;8.680;2024-01-16T08:53:25;-0.20;99.90
10417;DHT22;62605;49.432;8.680;2024-01-16T08:55:52;-0.10;99.90
10417;DHT22;62605;49.432;8.680;2024-01-16T08:58:20;0.00;99.90
10417;DHT22;62605;49.432;8.680;2024-01-16T09:00:48;0.10;99.90
10417;DHT22;62605;49.432;8.680;2024-01-16T09:03:15;0.00;99.90
10417;DHT22;62605;49.432;8.680;2024-01-16T09:05:43;0.00;99.90
10417;DHT22;62605;49.432;8.680;2024-01-16T09:08:11;0.00;99.90
10417;DHT22;62605;49.432;8.680;2024-01-16T09:10:38;0.00;99.90
10417;DHT22;62605;49.432;8.680;2024-01-16T09:13:05;0.00;99.90
10417;DHT22;62605;49.432;8.680;2024-01-16T09:15:32;0.00;99.90
10417;DHT22;62605;49.432;8.680;2024-01-16T09:18:01;-0.10;99.90
10417;DHT22;62605;49.432;8.680;2024-01-16T09:20:28;0.00;99.90
10417;DHT22;62605;49.432;8.680;2024-01-16T09:22:55;-0.10;99.90
10417;DHT22;62605;49.432;8.680;2024-01-16T09:25:23;0.00;99.90
10417;DHT22;62605;49.432;8.680;2024-01-16T09:27:52;0.10;99.90
10417;DHT22;62605;49.432;8.680;2024-01-16T09:30:20;0.20;99.90
10417;DHT22;62605;49.432;8.680;2024-01-16T09:32:48;0.20;99.90
10417;DHT22;62605;49.432;8.680;2024-01-16T09:35:17;0.10;99.90
10417;DHT22;62605;49.432;8.680;2024-01-16T09:37:44;0.20;99.90
10417;DHT22;62605;49.432;8.680;2024-01-16T09:40:12;0.20;99.90
10417;DHT22;62605;49.432;8.680;2024-01-16T09:42:40;0.30;99.90
10417;DHT22;62605;49.432;8.680;2024-01-16T09:45:09;0.30;99.90
10417;DHT22;62605;49.432;8.680;2024-01-16T09:47:37;0.20;99.90
10417;DHT22;62605;49.432;8.680;2024-01-16T09:50:05;0.30;99.90
10417;DHT22;62605;49.432;8.680;2024-01-16T09:52:34;0.30;99.90
10417;DHT22;62605;49.432;8.680;2024-01-16T09:55:02;0.20;99.90
10417;DHT22;62605;49.432;8.680;2024-01-16T09:57:32;0.20;99.90
10417;DHT22;62605;49.432;8.680;2024-01-16T10:00:02;0.10;99.90
10417;DHT22;62605;49.432;8.680;2024-01-16T10:02:32;0.30;99.90
10417;DHT22;62605;49.432;8.680;2024-01-16T10:05:00;0.40;99.90
10417;DHT22;62605;49.432;8.680;2024-01-16T10:07:30;0.30;99.90
10417;DHT22;62605;49.432;8.680;2024-01-16T10:10:03;0.40;99.90
10417;DHT22;62605;49.432;8.680;2024-01-16T10:12:33;0.50;99.90
10417;DHT22;62605;49.432;8.680;2024-01-16T10:15:03;0.50;99.90
10417;DHT22;62605;49.432;8.680;2024-01-16T10:17:38;0.70;99.90
10417;DHT22;62605;49.432;8.680;2024-01-16T10:20:10;0.80;99.90
10417;DHT22;62605;49.432;8.680;2024-01-16T10:22:40;0.80;99.90
10417;DHT22;62605;49.432;8.680;2024-01-16T10:25:13;0.90;99.90
10417;DHT22;62605;49.432;8.680;2024-01-16T10:27:43;0.70;99.90
10417;DHT22;62605;49.432;8.680;2024-01-16T10:30:12;0.70;99.90
10417;DHT22;62605;49.432;8.680;2024-01-16T10:32:42;0.70;99.90
10417;DHT22;62605;49.432;8.680;2024-01-16T10:35:12;0.70;99.90
10417;DHT22;62605;49.432;8.680;2024-01-16T10:37:46;0.70;99.90
10417;DHT22;62605;49.432;8.680;2024-01-16T10:40:20;0.60;99.90
10417;DHT22;62605;49.432;8.680;2024-01-16T10:42:59;0.70;99.90
10417;DHT22;62605;49.432;8.680;2024-01-16T10:45:29;0.50;99.90
10417;DHT22;62605;49.432;8.680;2024-01-16T10:48:04;0.50;99.90
10417;DHT22;62605;49.432;8.680;2024-01-16T10:50:34;0.50;99.90
10417;DHT22;62605;49.432;8.680;2024-01-16T10:53:05;0.50;99.90
10417;DHT22;62605;49.432;8.680;2024-01-16T10:55:42;0.40;99.90
10417;DHT22;62605;49.432;8.680;2024-01-16T10:58:13;0.50;99.90
10417;DHT22;62605;49.432;8.680;2024-01-16T11:00:43;0.60;99.90
10417;DHT22;62605;49.432;8.680;2024-01-16T11:03:19;0.80;99.90
10417;DHT22;62605;49.432;8.680;2024-01-16T11:05:49;0.70;99.90
10417;DHT22;62605;49.432;8.680;2024-01-16T11:08:18;0.70;99.90
10417;DHT22;62605;49.432;8.680;2024-01-16T11:10:49;1.00;99.90
10417;DHT22;62605;49.432;8.680;2024-01-16T11:13:19;1.00;99.90
10417;DHT22;62605;49.432;8.680;2024-01-16T11:15:50;1.00;99.90
10417;DHT22;62605;49.432;8.680;2024-01-16T11:18:18;1.20;99.90
10417;DHT22;62605;49.432;8.680;2024-01-16T11:20:47;1.40;99.90
10417;DHT22;62605;49.432;8.680;2024-01-16T11:23:17;1.20;99.90
10417;DHT22;62605;49.432;8.680;2024-01-16T11:25:51;1.30;99.90
10417;DHT22;62605;49.432;8.680;2024-01-16T11:28:28;1.40;99.90
10417;DHT22;62605;49.432;8.680;2024-01-16T11:31:29;1.50;99.90
10417;DHT22;62605;49.432;8.680;2024-01-16T11:34:00;1.60;99.90
10417;DHT22;62605;49.432;8.680;2024-01-16T11:36:49;1.50;99.90
10417;DHT22;62605;49.432;8.680;2024-01-16T11:39:22;1.30;99.90
10417;DHT22;62605;49.432;8.680;2024-01-16T11:41:59;1.30;99.90
10417;DHT22;62605;49.432;8.680;2024-01-16T11:44:41;1.30;99.90
10417;DHT22;62605;49.432;8.680;2024-01-16T11:47:16;1.20;99.90
10417;DHT22;62605;49.432;8.680;2024-01-16T11:49:49;1.20;99.90
10417;DHT22;62605;49.432;8.680;2024-01-16T11:52:39;1.10;99.90
10417;DHT22;62605;49.432;8.680;2024-01-16T11:55:27;1.20;99.90
10417;DHT22;62605;49.432;8.680;2024-01-16T11:58:26;1.30;99.90
10417;DHT22;62605;49.432;8.680;2024-01-16T12:01:06;1.40;99.90
10417;DHT22;62605;49.432;8.680;2024-01-16T12:03:38;1.70;99.90
10417;DHT22;62605;49.432;8.680;2024-01-16T12:06:07;1.60;99.90
10417;DHT22;62605;49.432;8.680;2024-01-16T12:08:38;1.70;99.90
10417;DHT22;62605;49.432;8.680;2024-01-16T12:11:09;1.80;99.90
10417;DHT22;62605;49.432;8.680;2024-01-16T12:13:47;1.70;99.90
10417;DHT22;62605;49.432;8.680;2024-01-16T12:16:44;1.50;99.90
10417;DHT22;62605;49.432;8.680;2024-01-16T12:19:21;1.40;99.90
10417;DHT22;62605;49.432;8.680;2024-01-16T12:21:58;1.50;99.90
10417;DHT22;62605;49.432;8.680;2024-01-16T12:24:31;1.60;99.90
10417;DHT22;62605;49.432;8.680;2024-01-16T12:27:08;1.60;99.90
10417;DHT22;62605;49.432;8.680;2024-01-16T12:29:43;1.60;99.90
10417;DHT22;62605;49.432;8.680;2024-01-16T12:32:15;1.50;99.90
10417;DHT22;62605;49.432;8.680;2024-01-16T12:34:49;1.40;99.90
10417;DHT22;62605;49.432;8.680;2024-01-16T12:37:27;1.40;99.90
10417;DHT22;62605;49.432;8.680;2024-01-16T12:40:19;1.40;99.90
10417;DHT22;62605;49.432;8.680;2024-01-16T12:42:49;1.40;99.90
10417;DHT22;62605;49.432;8.680;2024-01-16T12:45:37;1.60;99.90
10417;DHT22;62605;49.432;8.680;2024-01-16T12:48:33;1.50;99.90
10417;DHT22;62605;49.432;8.680;2024-01-16T12:51:08;1.40;99.90
10417;DHT22;62605;49.432;8.680;2024-01-16T12:53:40;1.40;99.90
10417;DHT22;62605;49.432;8.680;2024-01-16T12:56:19;1.40;99.90
10417;DHT22;62605;49.432;8.680;2024-01-16T12:58:55;1.40;99.90
10417;DHT22;62605;49.432;8.680;2024-01-16T13:01:42;1.50;99.90
10417;DHT22;62605;49.432;8.680;2024-01-16T13:04:12;1.60;99.90
10417;DHT22;62605;49.432;8.680;2024-01-16T13:06:41;1.70;99.90
10417;DHT22;62605;49.432;8.680;2024-01-16T13:09:13;1.70;99.90
10417;DHT22;62605;49.432;8.680;2024-01-16T13:11:50;1.80;99.90
10417;DHT22;62605;49.432;8.680;2024-01-16T13:14:19;1.80;99.90
10417;DHT22;62605;49.432;8.680;2024-01-16T13:16:53;1.80;99.90
10417;DHT22;62605;49.432;8.680;2024-01-16T13:19:26;1.80;99.90
10417;DHT22;62605;49.432;8.680;2024-01-16T13:21:57;1.90;99.90
10417;DHT22;62605;49.432;8.680;2024-01-16T13:24:26;1.80;99.90
10417;DHT22;62605;49.432;8.680;2024-01-16T13:26:57;1.80;99.90
10417;DHT22;62605;49.432;8.680;2024-01-16T13:29:28;1.90;99.90
10417;DHT22;62605;49.432;8.680;2024-01-16T13:32:05;1.90;99.90
10417;DHT22;62605;49.432;8.680;2024-01-16T13:34:34;1.90;99.90
10417;DHT22;62605;49.432;8.680;2024-01-16T13:37:05;1.90;99.90
10417;DHT22;62605;49.432;8.680;2024-01-16T13:39:36;1.90;99.90
10417;DHT22;62605;49.432;8.680;2024-01-16T13:42:07;1.90;99.90
10417;DHT22;62605;49.432;8.680;2024-01-16T13:44:36;1.90;99.90
10417;DHT22;62605;49.432;8.680;2024-01-16T13:47:08;1.90;99.90
10417;DHT22;62605;49.432;8.680;2024-01-16T13:49:38;1.90;99.90
10417;DHT22;62605;49.432;8.680;2024-01-16T13:52:08;1.90;99.90
10417;DHT22;62605;49.432;8.680;2024-01-16T13:54:40;2.00;99.90
10417;DHT22;62605;49.432;8.680;2024-01-16T13:57:09;1.90;99.90
10417;DHT22;62605;49.432;8.680;2024-01-16T13:59:40;1.90;99.90
10417;DHT22;62605;49.432;8.680;2024-01-16T14:02:12;1.90;99.90
10417;DHT22;62605;49.432;8.680;2024-01-16T14:04:41;1.90;99.90
10417;DHT22;62605;49.432;8.680;2024-01-16T14:07:10;1.90;99.90
10417;DHT22;62605;49.432;8.680;2024-01-16T14:09:40;1.90;99.90
10417;DHT22;62605;49.432;8.680;2024-01-16T14:12:10;1.90;99.90
10417;DHT22;62605;49.432;8.680;2024-01-16T14:14:41;1.80;99.90
10417;DHT22;62605;49.432;8.680;2024-01-16T14:17:12;1.80;99.90
10417;DHT22;62605;49.432;8.680;2024-01-16T14:19:40;1.80;99.90
10417;DHT22;62605;49.432;8.680;2024-01-16T14:22:09;1.70;99.90
10417;DHT22;62605;49.432;8.680;2024-01-16T14:24:39;1.60;99.90
10417;DHT22;62605;49.432;8.680;2024-01-16T14:27:08;1.50;99.90
10417;DHT22;62605;49.432;8.680;2024-01-16T14:29:39;1.60;99.90
10417;DHT22;62605;49.432;8.680;2024-01-16T14:32:07;1.50;99.90
10417;DHT22;62605;49.432;8.680;2024-01-16T14:34:39;1.60;99.90
10417;DHT22;62605;49.432;8.680;2024-01-16T14:37:09;1.60;99.90
10417;DHT22;62605;49.432;8.680;2024-01-16T14:39:39;1.50;99.90
10417;DHT22;62605;49.432;8.680;2024-01-16T14:42:08;1.50;99.90
10417;DHT22;62605;49.432;8.680;2024-01-16T14:44:36;1.50;99.90
10417;DHT22;62605;49.432;8.680;2024-01-16T14:47:03;1.50;99.90
10417;DHT22;62605;49.432;8.680;2024-01-16T14:49:30;1.40;99.90
10417;DHT22;62605;49.432;8.680;2024-01-16T14:51:59;1.40;99.90
10417;DHT22;62605;49.432;8.680;2024-01-16T14:54:26;1.30;99.90
10417;DHT22;62605;49.432;8.680;2024-01-16T14:56:54;1.30;99.90
10417;DHT22;62605;49.432;8.680;2024-01-16T14:59:21;1.40;99.90
10417;DHT22;62605;49.432;8.680;2024-01-16T15:01:48;1.30;99.90
10417;DHT22;62605;49.432;8.680;2024-01-16T15:04:17;1.20;99.90
10417;DHT22;62605;49.432;8.680;2024-01-16T15:06:45;1.10;99.90
10417;DHT22;62605;49.432;8.680;2024-01-16T15:09:14;1.10;99.90
10417;DHT22;62605;49.432;8.680;2024-01-16T15:11:42;1.10;99.90
10417;DHT22;62605;49.432;8.680;2024-01-16T15:14:11;1.00;99.90
10417;DHT22;62605;49.432;8.680;2024-01-16T15:16:38;1.00;99.90
10417;DHT22;62605;49.432;8.680;2024-01-16T15:19:06;0.90;99.90
10417;DHT22;62605;49.432;8.680;2024-01-16T15:21:33;0.90;99.90
10417;DHT22;62605;49.432;8.680;2024-01-16T15:24:00;1.00;99.90
10417;DHT22;62605;49.432;8.680;2024-01-16T15:26:29;0.90;99.90
10417;DHT22;62605;49.432;8.680;2024-01-16T15:28:56;0.80;99.90
10417;DHT22;62605;49.432;8.680;2024-01-16T15:31:24;0.70;99.90
10417;DHT22;62605;49.432;8.680;2024-01-16T15:33:51;0.70;99.90
10417;DHT22;62605;49.432;8.680;2024-01-16T15:36:18;0.70;99.90
10417;DHT22;62605;49.432;8.680;2024-01-16T15:38:47;0.70;99.90
10417;DHT22;62605;49.432;8.680;2024-01-16T15:41:14;0.60;99.90
10417;DHT22;62605;49.432;8.680;2024-01-16T15:43:43;0.60;99.90
10417;DHT22;62605;49.432;8.680;2024-01-16T15:46:11;0.50;99.90
10417;DHT22;62605;49.432;8.680;2024-01-16T15:48:38;0.40;99.90
10417;DHT22;62605;49.432;8.680;2024-01-16T15:51:05;0.30;99.90
10417;DHT22;62605;49.432;8.680;2024-01-16T15:53:33;0.20;99.90